Amherst, WI (54406)

5:49 PM CDT on August 24, 2016 (GMT -0500)
KWIWAUPA3 | | Change Station

Elev 900 ft 44.38 °N, 89.23 °W | Updated 34 seconds ago

Scattered Clouds
Scattered Clouds
78.7 °F
Feels Like 82 °F
N
0.0
Wind Variable Wind from ENE
Gusts 0.0 mph

Today
High -- | Low -- °F
--% Chance of Precip.
Yesterday
High -- | Low -- °F
Precip. -- in
Pressure 29.91 in
Visibility 10.0 miles
Clouds Scattered Clouds 2700 ft
Scattered Clouds 4000 ft
Heat Index 82 °F
Dew Point 72 °F
Humidity 81%
Rainfall 1.21 in
Snow Depth Not available.
6:11 AM 7:46 PM
Waning Gibbous, 52% visible
METAR KSTE 242235Z AUTO 28007KT 10SM SCT027 SCT040 25/19 A2991 RMK AO2 T02450194
Pressure 29.91 in
Visibility 10.0 miles
Clouds Scattered Clouds 2700 ft
Scattered Clouds 4000 ft
Heat Index 82 °F
Dew Point 72 °F
Humidity 81%
Rainfall 1.21 in
Snow Depth Not available.
6:11 AM 7:46 PM
Waning Gibbous, 52% visible
METAR KSTE 242235Z AUTO 28007KT 10SM SCT027 SCT040 25/19 A2991 RMK AO2 T02450194

10-Day Weather Forecast

Almanac

Astronomy

Aug. 24, 2016 Rise Set
Actual Time
Civil Twilight
Nautical Twilight
Astronomical Twilight
Moon
Length of Visible Light
Length of Day
Tomorrow will be .
, % of the Moon is Illuminated

Today's Extremes

State Highs State Lows

Community

WunderPhotos

Upload Photos

1,934,728 photos uploaded!

WunderBlog® & News

Nearby

Air Quality

  Air Quality AQ Index Pollutant
Not available.

Snow Depth

Station Depth Elevation

Earthquake Activity

City Distance Mag. Time & Date
Minimum magnitude displayed is 2.5.

Coastal Water Temperatures

Place Temperature

Stations

Nearby Weather Stations

Station Location Temp. Windchill Dew Point Humidity Wind Precip. Elev Updated Type
                   

Watches & Warnings

There are currently no watches in effect.